Amazonia, Missouri
Current Conditions -  °F | °C
As of 1:53 PM on Thursday 27 Nov 2014 (Local Time) from KSTJ Reporting Station
Few Clouds Few Clouds  
Wind Chill: -1°   Ceiling: Unl
Heat Index: -1°   Visibility: 10mi
Dew Point: -9°   Wind: 0mph
Humidity: 56%   Direction: NA
Pressure: 30.46"   Gusts: NA
Location:  39.89°N, 94.89°W
Report Text: KSTJ 271953Z 00000KT 10SM FEW055 M01/M09 A3046 RMK AO2 SLP326 T10111089
Loading
Personal Weather Stations






























Interactive Weather Map New forecast layout! Learn more

10-Day Weather Forecast

Advertisements
Track Severe Weather on mobile